Time;durP1;ratioP1;P1;durP2;ratioP2;P2;SDS_P1;SDS_P2;PMS_P1;PMS_P2;Temp;Humidity;BMP_temperature;BMP_pressure;BME280_temperature;BME280_humidity;BME280_pressure;Samples;Min_cycle;Max_cycle;Signal;HPM_P1;HPM_P2
2022/08/16 00:00:28;;;;;;;4.97;2.85;;;19.50;99.90;;;;;;8301843;28;20466;-75
2022/08/16 00:04:30;;;;;;;5.93;3.15;;;19.50;99.90;;;;;;8302907;28;20412;-74
2022/08/16 00:08:33;;;;;;;8.18;3.30;;;19.40;99.90;;;;;;8308393;28;20048;-73
2022/08/16 00:12:36;;;;;;;5.68;3.30;;;19.30;99.90;;;;;;8301915;28;20500;-74
2022/08/16 00:16:38;;;;;;;5.85;3.05;;;19.20;99.90;;;;;;8303434;28;20054;-75
2022/08/16 00:20:43;;;;;;;6.95;3.38;;;19.20;99.90;;;;;;8302642;28;20046;-74
2022/08/16 00:24:46;;;;;;;4.72;3.20;;;19.20;99.90;;;;;;8307476;28;20049;-75
2022/08/16 00:28:48;;;;;;;9.55;3.30;;;19.20;99.90;;;;;;8300990;28;20050;-72
2022/08/16 00:32:57;;;;;;;7.13;3.30;;;19.30;99.90;;;;;;8306284;28;20088;-74
2022/08/16 00:36:59;;;;;;;6.78;3.40;;;19.40;99.90;;;;;;8300624;28;20488;-75
2022/08/16 00:41:03;;;;;;;9.35;3.30;;;19.30;99.90;;;;;;8307068;28;20049;-75
2022/08/16 00:45:17;;;;;;;7.50;3.15;;;19.20;99.90;;;;;;8301036;28;20049;-74
2022/08/16 00:49:21;;;;;;;5.28;2.78;;;19.20;99.90;;;;;;8300217;28;20046;-75
2022/08/16 00:53:24;;;;;;;5.82;2.83;;;19.20;99.90;;;;;;8299631;28;20042;-75
2022/08/16 00:57:28;;;;;;;5.90;2.92;;;19.10;99.90;;;;;;8301618;28;20060;-75
2022/08/16 01:01:31;;;;;;;4.97;3.20;;;19.10;99.90;;;;;;8304315;28;20484;-77
2022/08/16 01:05:35;;;;;;;6.35;3.28;;;19.10;99.90;;;;;;8299539;28;20574;-74
2022/08/16 01:09:39;;;;;;;6.60;3.58;;;18.80;99.90;;;;;;8302888;28;20099;-73
2022/08/16 01:13:45;;;;;;;5.07;3.05;;;18.70;99.90;;;;;;8313367;28;20056;-74
2022/08/16 01:17:48;;;;;;;5.88;3.20;;;18.70;99.90;;;;;;8307774;28;20072;-74
2022/08/16 01:21:58;;;;;;;6.00;3.40;;;18.80;99.90;;;;;;8298637;28;20480;-73
2022/08/16 01:26:01;;;;;;;5.10;3.40;;;18.90;99.90;;;;;;8298990;28;20129;-75
2022/08/16 01:30:13;;;;;;;6.57;3.50;;;18.90;99.90;;;;;;8306571;28;20412;-74
2022/08/16 01:34:17;;;;;;;6.13;3.30;;;18.90;99.90;;;;;;8299722;28;20046;-75
2022/08/16 01:38:24;;;;;;;4.78;3.30;;;18.90;99.90;;;;;;8302545;28;20046;-74
2022/08/16 01:42:27;;;;;;;7.10;3.30;;;19.00;99.90;;;;;;8298876;28;20053;-73
2022/08/16 01:46:33;;;;;;;5.38;3.28;;;18.90;99.90;;;;;;8302377;28;20038;-76
2022/08/16 01:50:36;;;;;;;5.75;3.20;;;18.70;99.90;;;;;;8311056;28;20038;-75
2022/08/16 01:54:39;;;;;;;4.53;3.10;;;18.70;99.90;;;;;;8299391;28;20451;-75
2022/08/16 01:58:42;;;;;;;5.45;3.10;;;18.70;99.90;;;;;;8300120;28;20042;-75
2022/08/16 02:02:45;;;;;;;6.53;3.35;;;18.80;99.90;;;;;;8304051;28;20054;-77
2022/08/16 02:06:47;;;;;;;5.07;2.95;;;18.80;99.90;;;;;;8305990;28;20400;-75
2022/08/16 02:10:49;;;;;;;5.13;3.17;;;18.70;99.90;;;;;;8299169;28;20046;-75
2022/08/16 02:14:54;;;;;;;6.20;3.50;;;18.60;99.90;;;;;;8307745;28;20456;-75
2022/08/16 02:18:56;;;;;;;5.10;3.30;;;18.60;99.90;;;;;;8298642;28;20042;-75
2022/08/16 02:23:00;;;;;;;5.53;3.55;;;18.50;99.90;;;;;;8302517;28;20045;-78
2022/08/16 02:27:02;;;;;;;7.47;3.28;;;18.50;99.90;;;;;;8297355;28;20044;-75
2022/08/16 02:31:10;;;;;;;5.35;3.47;;;18.50;99.90;;;;;;8299137;28;20057;-75
2022/08/16 02:35:13;;;;;;;7.47;3.60;;;18.60;99.90;;;;;;8303707;28;20057;-76
2022/08/16 02:39:16;;;;;;;7.28;4.03;;;18.60;99.90;;;;;;8295862;28;20046;-74
2022/08/16 02:43:18;;;;;;;5.90;3.20;;;18.50;99.90;;;;;;8302624;28;20057;-73
2022/08/16 02:47:22;;;;;;;4.90;3.38;;;18.40;99.90;;;;;;8297436;28;20061;-75
2022/08/16 02:51:24;;;;;;;6.07;3.63;;;18.40;99.90;;;;;;8302469;28;20061;-75
2022/08/16 02:55:27;;;;;;;5.35;3.83;;;18.30;99.90;;;;;;8296306;28;20056;-77
2022/08/16 02:59:29;;;;;;;7.05;3.97;;;18.20;99.90;;;;;;8303580;28;20487;-75
2022/08/16 03:03:33;;;;;;;6.68;3.50;;;18.20;99.90;;;;;;8302955;28;20053;-77
2022/08/16 03:07:36;;;;;;;5.97;3.50;;;18.30;99.90;;;;;;8296557;28;20069;-76
2022/08/16 03:11:38;;;;;;;5.65;3.38;;;18.30;99.90;;;;;;8296654;28;20045;-74
2022/08/16 03:15:40;;;;;;;6.10;3.50;;;18.40;99.90;;;;;;8296474;28;20042;-75
2022/08/16 03:19:43;;;;;;;6.15;3.65;;;18.40;99.90;;;;;;8301304;28;20037;-76
2022/08/16 03:23:45;;;;;;;7.30;4.00;;;18.50;99.90;;;;;;8303131;28;20049;-75
2022/08/16 03:27:47;;;;;;;4.97;3.70;;;18.40;99.90;;;;;;8304419;28;20052;-75
2022/08/16 03:31:50;;;;;;;6.40;3.53;;;18.40;99.90;;;;;;8309304;28;20046;-75
2022/08/16 03:35:58;;;;;;;6.95;3.55;;;18.30;99.90;;;;;;8301965;28;20041;-75
2022/08/16 03:40:00;;;;;;;5.60;3.40;;;18.30;99.90;;;;;;8301805;28;20050;-74
2022/08/16 03:44:02;;;;;;;4.88;3.33;;;18.40;99.90;;;;;;8305873;28;20072;-74
2022/08/16 03:48:05;;;;;;;6.97;3.75;;;18.30;99.90;;;;;;8309256;28;20081;-75
2022/08/16 03:52:12;;;;;;;7.10;3.60;;;18.40;99.90;;;;;;8300117;28;20049;-76
2022/08/16 03:56:14;;;;;;;6.68;3.78;;;18.40;99.90;;;;;;8307017;28;20049;-77
2022/08/16 04:00:20;;;;;;;5.13;3.30;;;18.30;99.90;;;;;;8300956;28;20046;-77
2022/08/16 04:04:22;;;;;;;7.45;3.70;;;18.10;99.90;;;;;;8300449;28;20065;-76
2022/08/16 04:08:26;;;;;;;6.07;3.67;;;17.80;99.90;;;;;;8306361;28;20049;-74
2022/08/16 04:12:28;;;;;;;5.68;4.03;;;17.80;99.90;;;;;;8303215;28;20115;-73
2022/08/16 04:16:31;;;;;;;7.57;4.40;;;17.80;99.90;;;;;;8302586;28;20507;-76
2022/08/16 04:20:33;;;;;;;7.22;4.60;;;17.70;99.90;;;;;;8302535;28;20128;-74
2022/08/16 04:24:37;;;;;;;5.40;3.92;;;17.60;99.90;;;;;;8301910;28;20488;-74
2022/08/16 04:28:39;;;;;;;6.65;4.70;;;17.70;99.90;;;;;;8302094;28;20057;-73
2022/08/16 04:32:42;;;;;;;7.53;4.25;;;17.80;99.90;;;;;;8301169;28;20049;-73
2022/08/16 04:36:44;;;;;;;6.75;4.40;;;17.90;99.90;;;;;;8301188;28;20049;-74
2022/08/16 04:40:47;;;;;;;7.03;4.50;;;18.00;99.90;;;;;;8301442;28;20049;-74
2022/08/16 04:44:50;;;;;;;6.03;4.20;;;17.70;99.90;;;;;;8302075;28;20129;-71
2022/08/16 04:48:52;;;;;;;6.50;4.57;;;17.90;99.90;;;;;;8301531;28;20057;-72
2022/08/16 04:52:56;;;;;;;6.82;4.30;;;18.00;99.90;;;;;;8330860;28;20045;-74
2022/08/16 04:56:59;;;;;;;5.85;4.40;;;18.10;99.90;;;;;;8333064;28;20136;-72
2022/08/16 05:01:01;;;;;;;7.57;5.00;;;18.00;99.90;;;;;;8333650;28;20499;-73
2022/08/16 05:05:04;;;;;;;7.07;4.68;;;17.70;99.90;;;;;;8333144;28;20487;-73
2022/08/16 05:09:06;;;;;;;9.38;5.15;;;17.80;99.90;;;;;;8333669;28;20045;-72
2022/08/16 05:13:10;;;;;;;6.78;4.93;;;17.50;99.90;;;;;;8333110;28;20045;-73
2022/08/16 05:17:12;;;;;;;6.60;4.68;;;17.10;99.90;;;;;;8328935;28;20050;-72
2022/08/16 05:21:14;;;;;;;6.38;4.60;;;17.60;99.90;;;;;;8300802;28;20407;-72
2022/08/16 05:25:17;;;;;;;7.28;5.07;;;17.80;99.90;;;;;;8300502;28;20045;-72
2022/08/16 05:29:20;;;;;;;8.00;4.93;;;18.00;99.90;;;;;;8300647;28;20519;-73
2022/08/16 05:33:24;;;;;;;8.73;4.70;;;18.10;99.90;;;;;;8300564;28;20046;-72
2022/08/16 05:37:26;;;;;;;8.48;4.78;;;18.20;99.90;;;;;;8331172;28;20404;-73
2022/08/16 05:41:28;;;;;;;8.98;5.03;;;18.30;99.90;;;;;;8332404;28;20056;-73
2022/08/16 05:45:32;;;;;;;8.18;4.82;;;18.30;99.90;;;;;;8330507;28;20483;-72
2022/08/16 05:49:34;;;;;;;9.50;5.20;;;18.30;99.90;;;;;;8332363;28;20057;-71
2022/08/16 05:53:36;;;;;;;6.85;4.53;;;18.40;99.90;;;;;;8332347;28;20049;-72
2022/08/16 05:57:38;;;;;;;8.40;4.88;;;18.40;99.90;;;;;;8332345;28;20506;-73
2022/08/16 06:01:44;;;;;;;7.03;5.35;;;18.50;99.90;;;;;;8332380;28;20045;-73
2022/08/16 06:05:46;;;;;;;8.63;5.07;;;18.50;99.90;;;;;;8309072;28;20052;-72
2022/08/16 06:09:48;;;;;;;7.03;4.93;;;18.60;99.90;;;;;;8299756;28;20440;-73
2022/08/16 06:13:50;;;;;;;6.75;4.93;;;18.70;99.90;;;;;;8317928;28;20484;-72
2022/08/16 06:17:53;;;;;;;8.15;5.30;;;18.80;99.90;;;;;;8332902;28;20053;-72
2022/08/16 06:21:55;;;;;;;7.45;5.20;;;18.90;99.90;;;;;;8345156;28;20050;-74
2022/08/16 06:25:57;;;;;;;6.82;5.25;;;18.70;99.90;;;;;;8359392;28;20057;-71
2022/08/16 06:29:59;;;;;;;8.23;5.30;;;18.90;99.90;;;;;;8362026;28;20054;-72
2022/08/16 06:34:03;;;;;;;8.00;4.90;;;18.90;99.90;;;;;;8341520;28;20057;-74
2022/08/16 06:38:05;;;;;;;7.30;5.07;;;18.90;99.90;;;;;;8326828;28;20053;-73
2022/08/16 06:42:07;;;;;;;11.82;5.78;;;18.90;99.90;;;;;;8340989;28;20046;-73
2022/08/16 06:46:25;;;;;;;8.15;5.28;;;19.10;99.90;;;;;;8351321;28;20080;-75
2022/08/16 06:50:28;;;;;;;8.10;5.20;;;19.20;99.90;;;;;;8354990;28;20395;-73
2022/08/16 06:54:33;;;;;;;7.75;5.43;;;19.30;99.90;;;;;;8349990;28;20053;-73
2022/08/16 06:58:35;;;;;;;7.13;5.03;;;19.50;99.90;;;;;;8323491;28;20065;-72
2022/08/16 07:02:37;;;;;;;8.70;5.00;;;19.50;99.90;;;;;;8320286;28;20054;-73
2022/08/16 07:06:43;;;;;;;8.75;5.28;;;19.50;99.90;;;;;;8313923;28;20061;-74
2022/08/16 07:10:45;;;;;;;7.40;4.82;;;19.60;99.90;;;;;;8306192;28;20046;-74
2022/08/16 07:14:48;;;;;;;7.10;4.72;;;19.70;99.90;;;;;;8308208;28;20046;-74
2022/08/16 07:18:51;;;;;;;7.30;4.60;;;19.80;99.90;;;;;;8312170;28;20149;-75
2022/08/16 07:22:54;;;;;;;6.22;4.45;;;19.90;99.90;;;;;;8312001;28;20522;-74
2022/08/16 07:26:57;;;;;;;6.40;4.43;;;20.10;99.90;;;;;;8333024;28;20057;-72
2022/08/16 07:31:01;;;;;;;7.13;4.50;;;20.30;99.90;;;;;;8332601;28;20053;-73
2022/08/16 07:35:05;;;;;;;6.72;4.35;;;20.40;99.90;;;;;;8326182;28;20042;-73
2022/08/16 07:39:08;;;;;;;7.00;5.30;;;20.50;99.90;;;;;;8300651;28;20050;-73
2022/08/16 07:43:10;;;;;;;7.70;4.60;;;20.60;99.90;;;;;;8299424;28;20108;-72
2022/08/16 07:47:12;;;;;;;6.60;4.93;;;20.70;99.90;;;;;;8300259;28;20060;-72
2022/08/16 07:51:14;;;;;;;7.15;4.45;;;20.80;99.90;;;;;;8301376;28;20056;-72
2022/08/16 07:55:20;;;;;;;6.22;4.88;;;20.90;99.90;;;;;;8299176;28;20352;-72
2022/08/16 07:59:24;;;;;;;7.50;4.07;;;21.00;99.70;;;;;;8299310;28;20767;-73
2022/08/16 08:03:27;;;;;;;6.88;5.20;;;21.10;99.70;;;;;;8314018;28;20091;-73
2022/08/16 08:07:29;;;;;;;8.73;4.95;;;21.20;99.90;;;;;;8329966;28;20117;-73
2022/08/16 08:11:32;;;;;;;9.90;5.28;;;21.30;99.00;;;;;;8327040;28;20444;-73
2022/08/16 08:15:35;;;;;;;9.13;4.97;;;21.40;98.80;;;;;;8298436;28;20050;-71
2022/08/16 08:19:37;;;;;;;8.30;5.53;;;21.40;98.60;;;;;;8298029;28;20188;-74
2022/08/16 08:23:40;;;;;;;10.02;5.55;;;21.60;98.40;;;;;;8298162;28;20485;-73
2022/08/16 08:27:43;;;;;;;9.32;5.65;;;21.60;97.30;;;;;;8298647;28;20048;-72
2022/08/16 08:31:45;;;;;;;6.82;4.50;;;21.60;97.40;;;;;;8299858;28;20050;-74
2022/08/16 08:35:48;;;;;;;9.65;4.95;;;21.70;97.20;;;;;;8298260;28;20050;-78
2022/08/16 08:39:50;;;;;;;8.35;5.35;;;21.60;96.50;;;;;;8299636;28;20058;-76
2022/08/16 08:43:53;;;;;;;8.40;5.50;;;21.60;96.70;;;;;;8298163;28;20077;-78
2022/08/16 08:47:56;;;;;;;10.20;5.88;;;21.60;97.20;;;;;;8297786;28;20137;-79
2022/08/16 08:51:58;;;;;;;9.25;5.53;;;21.70;96.40;;;;;;8306949;28;20077;-77
2022/08/16 08:56:02;;;;;;;8.82;5.85;;;21.80;96.30;;;;;;8328727;28;20048;-77
2022/08/16 09:00:08;;;;;;;11.27;7.47;;;21.80;95.20;;;;;;8297366;28;20054;-77
2022/08/16 09:04:11;;;;;;;8.88;5.10;;;21.80;95.50;;;;;;8296727;28;20060;-78
2022/08/16 09:08:13;;;;;;;8.48;5.35;;;21.80;94.90;;;;;;8313031;28;20053;-77
2022/08/16 09:12:17;;;;;;;9.13;5.57;;;21.90;94.80;;;;;;8339567;28;20080;-77
2022/08/16 09:16:21;;;;;;;7.38;5.03;;;22.00;94.80;;;;;;8315442;28;20137;-77
2022/08/16 09:20:24;;;;;;;8.90;4.95;;;22.00;94.10;;;;;;8296388;28;20405;-77
2022/08/16 09:24:26;;;;;;;10.50;5.22;;;22.10;94.30;;;;;;8296009;28;20050;-76
2022/08/16 09:28:28;;;;;;;6.75;4.57;;;22.20;94.60;;;;;;8308272;28;20061;-75
2022/08/16 09:32:31;;;;;;;9.90;5.13;;;22.30;93.50;;;;;;8296040;28;20050;-78
2022/08/16 09:36:33;;;;;;;7.63;4.68;;;22.40;93.60;;;;;;8296191;28;20060;-76
2022/08/16 09:40:35;;;;;;;8.10;4.60;;;22.40;92.90;;;;;;8296507;28;20053;-77
2022/08/16 09:44:38;;;;;;;8.27;4.18;;;22.50;92.00;;;;;;8327530;28;20119;-76
2022/08/16 09:48:41;;;;;;;8.52;4.80;;;22.50;91.30;;;;;;8328456;28;20510;-76
2022/08/16 09:52:43;;;;;;;7.68;4.30;;;22.70;91.60;;;;;;8317657;28;20091;-76
2022/08/16 09:56:46;;;;;;;6.38;4.03;;;22.70;91.10;;;;;;8295696;28;20042;-77
2022/08/16 10:00:49;;;;;;;7.95;4.10;;;22.80;90.30;;;;;;8297330;28;20076;-75
2022/08/16 10:04:54;;;;;;;5.82;4.00;;;22.90;88.80;;;;;;8296910;28;20123;-76
2022/08/16 10:08:56;;;;;;;7.70;3.78;;;23.00;89.00;;;;;;8319872;28;20484;-75
2022/08/16 10:13:14;;;;;;;6.95;3.80;;;23.10;85.90;;;;;;8327899;28;20053;-77
2022/08/16 10:17:17;;;;;;;6.40;3.80;;;23.20;86.10;;;;;;8328761;28;20053;-76
2022/08/16 10:21:22;;;;;;;7.55;3.78;;;23.50;86.20;;;;;;8324379;28;20519;-77
2022/08/16 10:25:24;;;;;;;7.85;3.60;;;23.60;85.80;;;;;;8295941;28;20054;-77
2022/08/16 10:29:26;;;;;;;5.30;3.88;;;23.70;84.00;;;;;;8294924;28;20488;-77
2022/08/16 10:33:29;;;;;;;6.78;3.88;;;23.70;82.90;;;;;;8295581;28;20085;-76
2022/08/16 10:37:32;;;;;;;8.30;3.92;;;23.70;82.50;;;;;;8314003;28;20053;-77
2022/08/16 10:41:34;;;;;;;6.88;3.90;;;23.70;83.20;;;;;;8322090;28;20511;-76
2022/08/16 10:45:37;;;;;;;6.72;3.78;;;23.70;87.00;;;;;;8294445;28;20061;-78
2022/08/16 10:49:39;;;;;;;6.90;3.80;;;23.70;85.90;;;;;;8295991;28;20058;-77
2022/08/16 10:53:45;;;;;;;5.80;3.90;;;23.70;85.00;;;;;;8295632;28;20100;-78
2022/08/16 10:57:47;;;;;;;6.97;3.90;;;23.70;85.80;;;;;;8296068;28;20101;-75
2022/08/16 11:01:50;;;;;;;6.88;3.65;;;23.80;86.60;;;;;;8295802;28;20046;-78
2022/08/16 11:05:52;;;;;;;7.43;3.97;;;23.80;85.20;;;;;;8294039;28;20062;-76
2022/08/16 11:09:57;;;;;;;7.30;3.80;;;24.00;84.10;;;;;;8295654;28;20057;-76
2022/08/16 11:13:59;;;;;;;6.38;3.58;;;24.10;82.80;;;;;;8292612;28;20488;-77
2022/08/16 11:18:02;;;;;;;5.63;3.40;;;24.10;80.70;;;;;;8312126;28;20111;-79
2022/08/16 11:22:04;;;;;;;6.65;3.40;;;24.20;81.10;;;;;;8327801;28;20033;-78
2022/08/16 11:26:08;;;;;;;8.98;3.90;;;24.40;79.60;;;;;;8326789;28;20510;-75
2022/08/16 11:30:13;;;;;;;6.68;3.80;;;24.50;78.70;;;;;;8325124;28;20054;-77
2022/08/16 11:34:16;;;;;;;7.15;3.20;;;24.50;78.10;;;;;;8327636;28;20095;-77
2022/08/16 11:38:22;;;;;;;8.20;4.70;;;24.80;76.10;;;;;;8303052;28;20050;-77
2022/08/16 11:42:25;;;;;;;6.97;3.47;;;24.90;73.40;;;;;;8297954;28;20053;-77
2022/08/16 11:46:28;;;;;;;5.07;3.08;;;25.10;72.70;;;;;;8303091;28;20046;-77
2022/08/16 11:50:32;;;;;;;6.38;3.30;;;25.20;71.80;;;;;;8300028;28;20054;-78
2022/08/16 11:54:34;;;;;;;5.68;3.03;;;25.30;71.40;;;;;;8300414;28;20133;-77
2022/08/16 11:58:39;;;;;;;5.35;2.80;;;25.40;70.50;;;;;;8302550;28;20511;-77
2022/08/16 12:02:41;;;;;;;5.32;2.85;;;25.60;69.80;;;;;;8326570;28;20060;-78
2022/08/16 12:06:44;;;;;;;5.20;2.95;;;25.70;69.10;;;;;;8339470;28;20570;-78
2022/08/16 12:10:46;;;;;;;5.40;2.80;;;25.80;68.20;;;;;;8337514;28;20108;-78
2022/08/16 12:14:49;;;;;;;5.82;2.83;;;25.90;67.60;;;;;;8338431;28;20487;-78
2022/08/16 12:18:51;;;;;;;5.85;3.00;;;25.90;67.00;;;;;;8336869;28;20056;-78
2022/08/16 12:22:54;;;;;;;5.28;3.10;;;26.10;67.70;;;;;;8328562;28;20045;-77
2022/08/16 12:26:57;;;;;;;4.85;2.90;;;26.30;66.50;;;;;;8330102;28;20107;-77
2022/08/16 12:31:01;;;;;;;6.28;3.00;;;26.40;65.40;;;;;;8331950;28;20053;-78
2022/08/16 12:35:06;;;;;;;7.63;3.20;;;26.60;65.70;;;;;;8330220;28;20056;-79
2022/08/16 12:39:08;;;;;;;5.13;2.78;;;26.80;62.80;;;;;;8327968;28;20107;-75
2022/08/16 12:43:12;;;;;;;7.45;2.75;;;26.70;62.50;;;;;;8329968;28;20251;-78
2022/08/16 12:51:40;;;;;;;6.30;3.72;;;27.10;61.80;;;;;;8330426;28;20064;-75
2022/08/16 12:55:43;;;;;;;9.25;4.22;;;27.20;61.90;;;;;;8305936;28;20478;-78
2022/08/16 12:59:45;;;;;;;6.65;3.13;;;27.20;61.10;;;;;;8295823;28;20111;-78
2022/08/16 13:03:49;;;;;;;5.28;2.92;;;27.30;60.70;;;;;;8297024;28;20069;-77
2022/08/16 13:07:51;;;;;;;5.82;3.55;;;27.40;61.50;;;;;;8296113;28;20057;-75
2022/08/16 13:12:02;;;;;;;4.45;2.90;;;27.50;62.80;;;;;;8294361;28;20060;-75
2022/08/16 13:16:05;;;;;;;7.97;3.20;;;27.70;63.20;;;;;;8296164;28;20490;-76
2022/08/16 13:20:13;;;;;;;8.55;2.95;;;28.00;62.60;;;;;;8296246;28;20064;-77
2022/08/16 13:24:15;;;;;;;6.40;2.72;;;28.30;61.50;;;;;;8314373;28;20431;-76
2022/08/16 13:28:18;;;;;;;6.40;2.55;;;28.20;60.30;;;;;;8329107;28;20050;-77
2022/08/16 13:32:20;;;;;;;6.35;2.88;;;28.20;60.30;;;;;;8330193;28;20045;-77
2022/08/16 13:36:24;;;;;;;4.70;2.80;;;28.10;58.90;;;;;;8329464;28;20050;-79
2022/08/16 13:40:26;;;;;;;5.30;2.70;;;28.20;59.20;;;;;;8328720;28;20049;-77
2022/08/16 13:44:28;;;;;;;4.85;2.55;;;28.40;58.80;;;;;;8329664;28;20049;-78
2022/08/16 13:48:30;;;;;;;4.43;2.78;;;28.70;59.20;;;;;;8327728;28;20377;-78
2022/08/16 13:52:34;;;;;;;6.07;2.65;;;29.10;59.00;;;;;;8328591;28;20052;-77
2022/08/16 13:56:38;;;;;;;6.88;3.05;;;29.40;58.70;;;;;;8315096;28;20042;-77
2022/08/16 14:00:40;;;;;;;5.90;2.67;;;29.30;57.90;;;;;;8321821;28;20050;-79
2022/08/16 14:04:42;;;;;;;4.93;2.65;;;29.70;58.00;;;;;;8294043;28;20153;-78
2022/08/16 14:08:47;;;;;;;4.55;2.80;;;29.90;58.60;;;;;;8295423;28;20475;-77
2022/08/16 14:12:49;;;;;;;5.78;2.80;;;29.70;57.90;;;;;;8301296;28;20052;-79
2022/08/16 14:16:52;;;;;;;6.55;3.00;;;29.80;58.40;;;;;;8327772;28;20813;-77
2022/08/16 14:20:55;;;;;;;4.90;2.80;;;29.60;57.70;;;;;;8328182;28;20056;-79
2022/08/16 14:24:59;;;;;;;5.50;3.00;;;29.80;57.80;;;;;;8299592;28;20372;-76
2022/08/16 14:29:01;;;;;;;5.70;2.80;;;30.00;57.30;;;;;;8304227;28;20046;-79
2022/08/16 14:33:04;;;;;;;5.20;2.97;;;30.10;57.30;;;;;;8305715;28;20050;-78
2022/08/16 14:37:06;;;;;;;4.15;2.65;;;30.00;56.70;;;;;;8311220;28;20050;-76
2022/08/16 14:41:09;;;;;;;5.15;2.90;;;30.10;56.30;;;;;;8317087;28;20045;-76
2022/08/16 14:45:15;;;;;;;3.75;2.60;;;30.30;56.50;;;;;;8294632;28;20050;-78
2022/08/16 14:49:17;;;;;;;4.40;2.78;;;30.20;54.80;;;;;;8315851;28;20057;-78
2022/08/16 14:53:21;;;;;;;4.53;2.70;;;30.30;54.20;;;;;;8321890;28;20073;-74
2022/08/16 14:57:24;;;;;;;5.68;2.95;;;30.40;54.50;;;;;;8297339;28;20045;-78
2022/08/16 15:01:26;;;;;;;6.40;3.10;;;30.50;54.00;;;;;;8318761;28;20057;-77
2022/08/16 15:05:29;;;;;;;5.53;2.80;;;30.50;55.00;;;;;;8310197;28;20046;-75
2022/08/16 15:09:31;;;;;;;7.20;2.80;;;30.50;54.40;;;;;;8302549;28;20408;-79
2022/08/16 15:13:35;;;;;;;7.20;2.88;;;30.80;53.80;;;;;;8313608;28;20050;-77
2022/08/16 15:17:38;;;;;;;5.20;3.00;;;30.80;53.30;;;;;;8313151;28;20495;-78
2022/08/16 15:21:41;;;;;;;5.25;3.03;;;30.70;53.20;;;;;;8325504;28;20049;-76
2022/08/16 15:25:47;;;;;;;4.25;2.60;;;30.90;53.40;;;;;;8323058;28;20046;-76
2022/08/16 15:29:51;;;;;;;6.40;2.75;;;31.00;53.60;;;;;;8323774;28;20045;-78
2022/08/16 15:33:53;;;;;;;5.20;2.40;;;31.10;53.00;;;;;;8321228;28;20077;-78
2022/08/16 15:37:55;;;;;;;11.60;8.38;;;31.30;53.80;;;;;;8298590;28;20495;-76
2022/08/16 15:42:05;;;;;;;5.55;3.67;;;31.40;53.50;;;;;;8317537;28;20407;-77
2022/08/16 15:46:24;;;;;;;5.72;2.58;;;31.20;53.30;;;;;;8313416;28;20491;-79
2022/08/16 15:50:26;;;;;;;4.88;2.53;;;31.40;52.20;;;;;;8318657;28;20056;-77
2022/08/16 15:54:28;;;;;;;4.75;2.80;;;31.40;52.10;;;;;;8323756;28;20053;-78
2022/08/16 15:58:31;;;;;;;4.68;2.55;;;31.50;52.40;;;;;;8309569;28;20037;-77
2022/08/16 16:02:35;;;;;;;5.20;2.70;;;31.80;51.70;;;;;;8320096;28;20054;-76
2022/08/16 16:06:37;;;;;;;6.18;2.55;;;31.80;51.90;;;;;;8319150;28;20052;-78
2022/08/16 16:10:42;;;;;;;5.90;2.78;;;31.80;52.50;;;;;;8323565;28;20419;-78
2022/08/16 16:14:44;;;;;;;5.90;2.90;;;31.80;52.50;;;;;;8315222;28;20045;-77
2022/08/16 16:18:47;;;;;;;7.40;3.03;;;32.00;51.90;;;;;;8317131;28;20049;-78
2022/08/16 16:22:49;;;;;;;6.38;2.72;;;31.90;51.30;;;;;;8322885;28;20476;-77
2022/08/16 16:26:51;;;;;;;7.10;3.30;;;32.00;51.50;;;;;;8321232;28;20480;-77
2022/08/16 16:30:54;;;;;;;9.95;6.78;;;32.20;51.80;;;;;;8315953;28;20053;-78
2022/08/16 16:34:58;;;;;;;5.88;2.95;;;32.30;51.10;;;;;;8304172;28;20067;-78
2022/08/16 16:39:01;;;;;;;5.07;2.65;;;32.20;51.30;;;;;;8306329;28;20046;-77
2022/08/16 16:43:05;;;;;;;5.55;2.80;;;32.30;51.30;;;;;;8313747;28;20053;-77
2022/08/16 16:47:07;;;;;;;4.65;2.40;;;32.30;50.30;;;;;;8311174;28;20098;-77
2022/08/16 16:51:11;;;;;;;5.65;2.70;;;32.30;50.90;;;;;;8295077;28;20692;-79
2022/08/16 16:55:14;;;;;;;5.40;2.50;;;32.20;50.20;;;;;;8311632;28;20095;-75
2022/08/16 16:59:17;;;;;;;6.90;2.88;;;32.00;50.40;;;;;;8316717;28;20143;-80
2022/08/16 17:03:19;;;;;;;6.25;2.65;;;32.00;50.70;;;;;;8309922;28;20050;-78
2022/08/16 17:07:22;;;;;;;4.75;2.47;;;32.20;51.10;;;;;;8314909;28;20057;-78
2022/08/16 17:11:25;;;;;;;6.78;2.78;;;32.30;51.40;;;;;;8313864;28;20099;-76
2022/08/16 17:15:28;;;;;;;7.22;2.65;;;32.20;50.70;;;;;;8313681;28;20052;-76
2022/08/16 17:19:30;;;;;;;5.95;2.60;;;32.00;50.50;;;;;;8315644;28;20054;-76
2022/08/16 17:23:35;;;;;;;5.30;2.58;;;31.90;50.80;;;;;;8318473;28;20076;-78
2022/08/16 17:27:38;;;;;;;5.45;2.95;;;32.00;51.20;;;;;;8316900;28;20050;-76
2022/08/16 17:31:40;;;;;;;4.70;2.67;;;32.00;51.20;;;;;;8312663;28;20045;-77
2022/08/16 17:35:45;;;;;;;4.20;2.50;;;31.90;51.00;;;;;;8296838;28;20049;-76
2022/08/16 17:39:48;;;;;;;5.13;2.65;;;31.60;51.60;;;;;;8313215;28;20686;-78
2022/08/16 17:43:50;;;;;;;4.53;2.50;;;31.60;51.80;;;;;;8308562;28;20377;-78
2022/08/16 17:47:53;;;;;;;5.63;2.60;;;31.60;51.70;;;;;;8314502;28;20045;-76
2022/08/16 17:51:55;;;;;;;6.22;2.72;;;31.60;51.20;;;;;;8304507;28;20045;-78
2022/08/16 17:55:59;;;;;;;5.28;2.80;;;31.50;51.10;;;;;;8314413;28;20468;-77
2022/08/16 18:00:01;;;;;;;6.53;2.95;;;31.30;51.50;;;;;;8308247;28;20046;-77
2022/08/16 18:04:04;;;;;;;6.20;3.28;;;31.00;52.50;;;;;;8291906;28;20056;-75
2022/08/16 18:08:06;;;;;;;5.75;3.30;;;31.00;53.00;;;;;;8312865;28;20478;-75
2022/08/16 18:12:16;;;;;;;4.32;2.97;;;31.10;53.70;;;;;;8314898;28;20045;-74
2022/08/16 18:16:19;;;;;;;5.68;3.10;;;31.10;54.30;;;;;;8292541;28;20056;-75
2022/08/16 18:24:42;;;;;;;6.13;2.97;;;30.60;54.90;;;;;;8316136;28;20087;-75
2022/08/16 18:28:46;;;;;;;5.43;2.92;;;30.20;57.00;;;;;;8314362;28;20058;-74
2022/08/16 18:32:48;;;;;;;5.25;3.00;;;29.90;59.30;;;;;;8305185;28;20778;-74
2022/08/16 18:36:51;;;;;;;4.70;2.83;;;29.90;60.70;;;;;;8316712;28;20045;-74
2022/08/16 18:40:53;;;;;;;4.35;2.85;;;29.50;60.60;;;;;;8313977;28;20104;-77
2022/08/16 18:44:56;;;;;;;5.40;2.90;;;29.50;61.10;;;;;;8301236;28;20049;-78
2022/08/16 18:48:58;;;;;;;4.88;2.83;;;29.40;63.10;;;;;;8307730;28;20050;-78
2022/08/16 18:53:05;;;;;;;7.47;3.30;;;29.30;63.80;;;;;;8314683;28;20045;-79
2022/08/16 18:57:07;;;;;;;5.15;3.22;;;29.00;63.30;;;;;;8315670;28;20046;-77
2022/08/16 19:01:10;;;;;;;6.82;4.18;;;28.90;63.70;;;;;;8318846;28;20045;-75
2022/08/16 19:05:16;;;;;;;6.32;3.75;;;28.70;65.50;;;;;;8325164;28;20049;-78
2022/08/16 19:09:20;;;;;;;7.18;3.78;;;28.60;67.30;;;;;;8318740;28;20561;-77
2022/08/16 19:13:25;;;;;;;6.93;3.60;;;28.30;67.20;;;;;;8312486;28;20100;-77
2022/08/16 19:17:28;;;;;;;6.85;3.70;;;28.00;67.70;;;;;;8316097;28;20046;-78
2022/08/16 19:21:30;;;;;;;28.77;21.88;;;27.80;68.20;;;;;;8300192;28;20050;-75
2022/08/16 19:25:36;;;;;;;10.05;7.30;;;27.70;69.40;;;;;;8319221;28;20368;-75
2022/08/16 19:29:38;;;;;;;7.15;5.05;;;27.60;69.50;;;;;;8317403;28;20057;-76
2022/08/16 19:33:44;;;;;;;7.07;3.97;;;27.50;69.70;;;;;;8316172;28;20053;-79
2022/08/16 19:37:46;;;;;;;6.45;3.63;;;27.40;70.10;;;;;;8317145;28;20046;-76
2022/08/16 19:41:49;;;;;;;7.35;3.70;;;27.20;69.50;;;;;;8315545;28;20513;-77
2022/08/16 19:45:53;;;;;;;7.30;4.40;;;27.10;71.00;;;;;;8317167;28;20392;-78
2022/08/16 19:49:56;;;;;;;6.03;3.72;;;27.00;70.30;;;;;;8323492;28;20050;-78
2022/08/16 19:53:59;;;;;;;7.00;3.83;;;26.90;70.90;;;;;;8323599;28;20042;-75
2022/08/16 19:58:01;;;;;;;6.38;3.40;;;26.80;69.10;;;;;;8316533;28;20045;-76
2022/08/16 20:02:06;;;;;;;5.95;3.47;;;26.80;69.60;;;;;;8310037;28;20041;-74
2022/08/16 20:06:10;;;;;;;5.38;3.65;;;26.70;69.50;;;;;;8315610;28;20049;-77
2022/08/16 20:10:17;;;;;;;6.53;3.35;;;26.60;70.60;;;;;;8318443;28;20702;-74
2022/08/16 20:14:20;;;;;;;7.35;3.60;;;26.40;71.30;;;;;;8308180;28;20053;-75
2022/08/16 20:18:22;;;;;;;5.75;3.33;;;26.40;72.10;;;;;;8318235;28;20806;-76
2022/08/16 20:22:30;;;;;;;5.55;3.90;;;26.20;71.60;;;;;;8322628;28;20057;-75
2022/08/16 20:26:33;;;;;;;7.93;3.83;;;26.20;70.50;;;;;;8321614;28;20042;-74
2022/08/16 20:30:36;;;;;;;6.97;3.85;;;26.10;70.80;;;;;;8307928;28;20053;-76
2022/08/16 20:34:40;;;;;;;58.42;40.42;;;26.00;70.70;;;;;;8304556;28;20408;-75
2022/08/16 20:38:45;;;;;;;10.05;6.57;;;25.90;72.40;;;;;;8302157;28;20049;-76
2022/08/16 20:43:03;;;;;;;9.43;4.30;;;25.90;72.70;;;;;;8311116;28;20050;-77
2022/08/16 20:47:06;;;;;;;7.25;3.80;;;25.80;73.70;;;;;;8314850;28;20057;-72
2022/08/16 20:51:09;;;;;;;7.53;4.13;;;25.70;73.10;;;;;;8296133;28;20053;-74
2022/08/16 20:55:13;;;;;;;5.85;4.15;;;25.70;73.30;;;;;;8320573;28;20056;-74
2022/08/16 20:59:15;;;;;;;7.22;4.20;;;25.60;73.30;;;;;;8314279;28;20520;-76
2022/08/16 21:03:17;;;;;;;7.35;4.28;;;25.60;74.00;;;;;;8318045;28;20053;-75
2022/08/16 21:07:20;;;;;;;6.18;3.67;;;25.40;74.00;;;;;;8303567;28;20060;-75
2022/08/16 21:11:26;;;;;;;5.18;3.78;;;25.30;75.00;;;;;;8321274;28;20046;-74